Terminal Aerodrome Forecast
Issued by NWS

Home | Current Version | Previous Version | Text Only | Print | Product List | Glossary On
Versions: 1 2 3 4 5 6 7 8 9 10 11 12 13 14 15 16 17 18 19 20 21 22 23
000
FTUS41 KILN 190500
TAFLUK
TAF
KLUK 190535Z 1906/2006 07008KT P6SM SCT100 OVC200
     FM190800 09012KT P6SM FEW050 OVC100
     FM191300 10012G20KT P6SM -SHRA SCT028 OVC050
     FM191500 12014G24KT 5SM -SHRA OVC028
     FM192000 17012G20KT 4SM -SHRA OVC028
     FM200000 21012G20KT P6SM VCSH OVC020=

USA.gov is the U.S. government's official web portal to all federal, state and local government web resources and services.